Time;durP1;ratioP1;P1;durP2;ratioP2;P2;SDS_P1;SDS_P2;PMS_P1;PMS_P2;Temp;Humidity;BMP_temperature;BMP_pressure;BME280_temperature;BME280_humidity;BME280_pressure;Samples;Min_cycle;Max_cycle;Signal;HPM_P1;HPM_P2
2022/07/27 00:00:03;;;;;;;3.28;1.17;;;;;;;;;;4944064;28;20043;-83
2022/07/27 00:02:28;;;;;;;3.47;1.30;;;;;;;;;;4947037;28;20089;-83
2022/07/27 00:04:54;;;;;;;6.50;1.50;;;;;;;;;;4945125;28;20039;-83
2022/07/27 00:07:19;;;;;;;2.72;1.35;;;;;;;;;;4945064;28;20185;-83
2022/07/27 00:09:44;;;;;;;1.98;1.00;;;;;;;;;;4946681;28;20034;-83
2022/07/27 00:12:10;;;;;;;4.30;1.02;;;;;;;;;;4959835;28;20039;-83
2022/07/27 00:14:35;;;;;;;2.65;1.08;;;;;;;;;;4946826;28;20035;-84
2022/07/27 00:17:01;;;;;;;3.42;1.10;;;;;;;;;;4945211;28;21027;-83
2022/07/27 00:19:26;;;;;;;8.00;1.50;;;;;;;;;;4945542;29;20050;-83
2022/07/27 00:21:52;;;;;;;3.30;1.00;;;;;;;;;;4947858;28;20043;-83
2022/07/27 00:24:17;;;;;;;5.95;1.40;;;;;;;;;;4942265;28;20040;-83
2022/07/27 00:26:42;;;;;;;3.05;1.25;;;;;;;;;;4953149;28;20395;-83
2022/07/27 00:29:07;;;;;;;2.45;1.20;;;;;;;;;;4951832;28;20102;-83
2022/07/27 00:31:33;;;;;;;2.15;1.10;;;;;;;;;;4949603;29;20097;-83
2022/07/27 00:33:59;;;;;;;2.42;1.13;;;;;;;;;;4951099;28;20027;-83
2022/07/27 00:36:24;;;;;;;4.10;1.45;;;;;;;;;;4941923;29;20683;-82
2022/07/27 00:38:50;;;;;;;3.75;1.20;;;;;;;;;;4948672;28;20525;-83
2022/07/27 00:41:15;;;;;;;3.08;1.23;;;;;;;;;;4951855;28;20043;-83
2022/07/27 00:43:58;;;;;;;3.42;1.30;;;;;;;;;;4952778;28;20050;-83
2022/07/27 00:46:24;;;;;;;1.98;1.20;;;;;;;;;;4951552;28;20043;-83
2022/07/27 00:48:50;;;;;;;1.85;1.15;;;;;;;;;;4952410;28;20054;-83
2022/07/27 00:51:18;;;;;;;5.40;1.05;;;;;;;;;;4948871;28;20032;-84
2022/07/27 00:53:44;;;;;;;4.50;1.50;;;;;;;;;;4950240;28;20474;-82
2022/07/27 00:56:10;;;;;;;4.28;1.20;;;;;;;;;;4948082;28;20070;-83
2022/07/27 00:58:37;;;;;;;1.90;1.00;;;;;;;;;;4950660;28;20527;-82
2022/07/27 01:01:02;;;;;;;3.15;1.10;;;;;;;;;;4951413;28;20042;-82
2022/07/27 01:03:28;;;;;;;3.15;1.30;;;;;;;;;;4951047;28;20031;-83
2022/07/27 01:05:54;;;;;;;2.65;1.13;;;;;;;;;;4942204;28;20028;-82
2022/07/27 01:08:19;;;;;;;2.22;1.17;;;;;;;;;;4945841;28;20074;-82
2022/07/27 01:10:46;;;;;;;2.72;1.05;;;;;;;;;;4950548;28;20617;-83
2022/07/27 01:13:12;;;;;;;2.42;1.35;;;;;;;;;;4949877;28;20035;-83
2022/07/27 01:15:37;;;;;;;1.33;0.90;;;;;;;;;;4947889;28;20081;-83
2022/07/27 01:18:09;;;;;;;2.28;1.27;;;;;;;;;;4951364;28;20059;-83
2022/07/27 01:20:36;;;;;;;2.22;1.10;;;;;;;;;;4964878;28;20483;-83
2022/07/27 01:23:01;;;;;;;3.38;1.20;;;;;;;;;;4951750;28;20059;-83
2022/07/27 01:25:26;;;;;;;2.92;1.15;;;;;;;;;;4949344;28;20062;-83
2022/07/27 01:27:52;;;;;;;4.65;1.30;;;;;;;;;;4950625;29;20019;-82
2022/07/27 01:30:26;;;;;;;2.70;1.20;;;;;;;;;;4947828;28;20035;-82
2022/07/27 01:33:00;;;;;;;2.88;1.00;;;;;;;;;;4944967;28;20051;-83
2022/07/27 01:35:25;;;;;;;1.67;1.20;;;;;;;;;;4943700;28;20082;-82
2022/07/27 01:37:50;;;;;;;2.72;1.13;;;;;;;;;;4950135;28;20035;-83
2022/07/27 01:40:16;;;;;;;2.50;1.40;;;;;;;;;;4966501;28;20055;-83
2022/07/27 01:42:41;;;;;;;3.60;1.20;;;;;;;;;;4951905;28;20086;-83
2022/07/27 01:45:07;;;;;;;1.35;0.85;;;;;;;;;;4947420;28;20102;-82
2022/07/27 01:47:33;;;;;;;4.18;1.20;;;;;;;;;;4958943;28;20057;-82
2022/07/27 01:49:58;;;;;;;1.77;1.10;;;;;;;;;;4950178;28;20027;-83
2022/07/27 01:52:23;;;;;;;3.25;1.27;;;;;;;;;;4951303;28;20056;-84
2022/07/27 01:54:49;;;;;;;1.50;1.08;;;;;;;;;;4949903;28;20479;-83
2022/07/27 01:57:14;;;;;;;5.22;1.23;;;;;;;;;;4949953;28;20046;-83
2022/07/27 01:59:40;;;;;;;2.60;1.02;;;;;;;;;;4946445;28;20023;-83
2022/07/27 02:02:05;;;;;;;3.25;1.02;;;;;;;;;;4949674;28;20043;-83
2022/07/27 02:04:31;;;;;;;1.85;1.30;;;;;;;;;;4946220;28;20147;-83
2022/07/27 02:06:56;;;;;;;5.93;1.60;;;;;;;;;;4945016;28;20070;-83
2022/07/27 02:09:24;;;;;;;1.98;1.20;;;;;;;;;;4949828;28;20066;-83
2022/07/27 02:14:34;;;;;;;2.95;0.90;;;;;;;;;;4950390;28;20089;-83
2022/07/27 02:17:00;;;;;;;4.28;1.55;;;;;;;;;;4948819;28;20031;-83
2022/07/27 02:19:25;;;;;;;4.80;1.25;;;;;;;;;;4949416;28;20067;-83
2022/07/27 02:21:50;;;;;;;5.70;1.42;;;;;;;;;;4946212;29;20483;-83
2022/07/27 02:24:16;;;;;;;2.28;1.20;;;;;;;;;;4949960;28;20134;-83
2022/07/27 02:26:41;;;;;;;2.15;1.08;;;;;;;;;;4948903;28;20031;-82
2022/07/27 02:29:07;;;;;;;3.03;1.15;;;;;;;;;;4950665;28;20031;-83
2022/07/27 02:31:32;;;;;;;2.55;1.10;;;;;;;;;;4948673;28;20034;-82
2022/07/27 02:33:57;;;;;;;5.28;1.30;;;;;;;;;;4947893;28;20655;-82
2022/07/27 02:36:23;;;;;;;2.08;1.30;;;;;;;;;;4962943;28;20395;-83
2022/07/27 02:38:48;;;;;;;4.78;1.40;;;;;;;;;;4947269;28;20414;-82
2022/07/27 02:41:13;;;;;;;1.63;1.00;;;;;;;;;;4949830;28;20031;-84
2022/07/27 02:43:39;;;;;;;2.58;1.48;;;;;;;;;;4972071;28;20051;-83
2022/07/27 02:46:04;;;;;;;5.57;1.20;;;;;;;;;;4971450;28;20078;-82
2022/07/27 02:48:31;;;;;;;1.55;1.00;;;;;;;;;;4967535;28;20399;-84
2022/07/27 02:51:00;;;;;;;4.05;1.27;;;;;;;;;;4945773;28;20063;-83
2022/07/27 02:53:27;;;;;;;2.00;1.00;;;;;;;;;;4942682;28;20043;-82
2022/07/27 02:55:52;;;;;;;1.40;1.10;;;;;;;;;;4959268;28;20075;-82
2022/07/27 02:58:17;;;;;;;2.63;1.50;;;;;;;;;;4947218;28;20051;-83
2022/07/27 03:00:43;;;;;;;3.28;1.40;;;;;;;;;;4950549;28;20094;-82
2022/07/27 03:03:08;;;;;;;1.83;1.10;;;;;;;;;;4948240;28;20071;-82
2022/07/27 03:05:34;;;;;;;3.50;1.40;;;;;;;;;;4946671;28;20043;-83
2022/07/27 03:08:00;;;;;;;3.70;1.70;;;;;;;;;;4946047;28;20054;-83
2022/07/27 03:10:25;;;;;;;3.63;1.17;;;;;;;;;;4944727;28;20066;-82
2022/07/27 03:12:50;;;;;;;4.63;1.20;;;;;;;;;;4946581;29;20030;-82
2022/07/27 03:15:16;;;;;;;1.45;1.23;;;;;;;;;;4947078;28;20046;-82
2022/07/27 03:17:41;;;;;;;1.55;1.20;;;;;;;;;;4947472;28;20585;-82
2022/07/27 03:20:07;;;;;;;2.03;1.42;;;;;;;;;;4947693;28;20050;-82
2022/07/27 03:22:33;;;;;;;1.52;1.13;;;;;;;;;;4948765;28;20083;-83
2022/07/27 03:24:59;;;;;;;1.90;1.10;;;;;;;;;;4948920;28;20019;-82
2022/07/27 03:27:24;;;;;;;2.78;1.23;;;;;;;;;;4949844;28;20061;-82
2022/07/27 03:29:50;;;;;;;4.95;1.20;;;;;;;;;;4963126;28;20031;-82
2022/07/27 03:32:15;;;;;;;6.75;1.25;;;;;;;;;;4947378;28;20023;-83
2022/07/27 03:34:41;;;;;;;3.00;1.30;;;;;;;;;;4944346;28;20032;-82
2022/07/27 03:37:06;;;;;;;2.95;1.30;;;;;;;;;;4947856;28;20034;-82
2022/07/27 03:39:31;;;;;;;1.67;1.10;;;;;;;;;;4949041;29;20110;-82
2022/07/27 03:41:57;;;;;;;2.80;1.20;;;;;;;;;;4944723;28;20063;-82
2022/07/27 03:44:22;;;;;;;3.55;1.75;;;;;;;;;;4945747;28;20051;-83
2022/07/27 03:46:47;;;;;;;3.50;1.40;;;;;;;;;;4947223;28;20095;-82
2022/07/27 03:49:13;;;;;;;3.25;1.40;;;;;;;;;;4947850;28;20055;-82
2022/07/27 03:51:39;;;;;;;1.70;1.33;;;;;;;;;;4941771;28;20098;-83
2022/07/27 03:54:04;;;;;;;3.13;1.23;;;;;;;;;;4962877;28;20059;-82
2022/07/27 03:56:31;;;;;;;3.40;1.40;;;;;;;;;;4947671;28;20094;-83
2022/07/27 03:58:57;;;;;;;2.00;1.42;;;;;;;;;;4947392;28;20043;-82
2022/07/27 04:01:22;;;;;;;4.43;1.45;;;;;;;;;;4945688;28;20032;-83
2022/07/27 04:03:48;;;;;;;3.78;1.40;;;;;;;;;;4947905;28;20019;-83
2022/07/27 04:06:13;;;;;;;3.22;1.40;;;;;;;;;;4947698;28;20098;-83
2022/07/27 04:08:38;;;;;;;4.13;1.30;;;;;;;;;;4948119;28;20530;-83
2022/07/27 04:11:04;;;;;;;1.92;1.25;;;;;;;;;;4948098;28;20035;-82
2022/07/27 04:13:29;;;;;;;1.65;1.20;;;;;;;;;;4948086;28;20031;-82
2022/07/27 04:15:56;;;;;;;3.85;1.48;;;;;;;;;;4946180;28;20126;-82
2022/07/27 04:18:22;;;;;;;3.45;1.52;;;;;;;;;;4959218;28;20408;-82
2022/07/27 04:20:47;;;;;;;5.72;1.50;;;;;;;;;;4948703;28;20585;-82
2022/07/27 04:23:12;;;;;;;3.88;1.48;;;;;;;;;;4948150;28;20122;-83
2022/07/27 04:25:38;;;;;;;2.58;1.20;;;;;;;;;;4962267;28;20110;-82
2022/07/27 04:28:03;;;;;;;4.68;1.60;;;;;;;;;;4948864;28;20027;-82
2022/07/27 04:30:29;;;;;;;3.50;1.20;;;;;;;;;;4947035;29;20679;-82
2022/07/27 04:32:54;;;;;;;3.95;1.25;;;;;;;;;;4946040;28;20426;-83
2022/07/27 04:35:19;;;;;;;2.70;1.38;;;;;;;;;;4946429;28;20027;-83
2022/07/27 04:37:45;;;;;;;4.00;1.60;;;;;;;;;;4945929;28;20035;-83
2022/07/27 04:40:11;;;;;;;5.30;1.50;;;;;;;;;;4963338;28;20153;-83
2022/07/27 04:42:36;;;;;;;2.70;1.55;;;;;;;;;;4947196;28;20047;-82
2022/07/27 04:45:02;;;;;;;3.10;1.40;;;;;;;;;;4948248;28;20118;-83
2022/07/27 04:47:28;;;;;;;3.00;1.30;;;;;;;;;;4942849;28;20031;-83
2022/07/27 04:49:54;;;;;;;1.73;1.13;;;;;;;;;;4942727;28;20046;-83
2022/07/27 04:52:19;;;;;;;3.63;1.75;;;;;;;;;;4945615;28;20039;-83
2022/07/27 04:54:45;;;;;;;2.63;1.55;;;;;;;;;;4945985;29;20114;-83
2022/07/27 04:57:10;;;;;;;2.17;1.48;;;;;;;;;;4947717;28;20039;-82
2022/07/27 04:59:36;;;;;;;3.78;1.60;;;;;;;;;;4945820;28;20039;-83
2022/07/27 05:02:01;;;;;;;6.30;1.80;;;;;;;;;;4945526;28;20550;-82
2022/07/27 05:04:26;;;;;;;2.65;1.38;;;;;;;;;;4946372;28;20047;-83
2022/07/27 05:06:52;;;;;;;4.25;1.50;;;;;;;;;;4946733;28;20031;-83
2022/07/27 05:09:17;;;;;;;5.22;1.90;;;;;;;;;;4951333;28;20595;-82
2022/07/27 05:11:42;;;;;;;2.58;1.50;;;;;;;;;;4948420;28;20070;-83
2022/07/27 05:14:08;;;;;;;2.65;1.55;;;;;;;;;;4947155;28;20039;-82
2022/07/27 05:16:33;;;;;;;3.38;1.33;;;;;;;;;;4947215;28;20035;-83
2022/07/27 05:18:58;;;;;;;1.75;1.40;;;;;;;;;;4952092;28;20031;-83
2022/07/27 05:21:24;;;;;;;3.85;1.45;;;;;;;;;;4949977;28;20035;-83
2022/07/27 05:23:50;;;;;;;3.25;1.33;;;;;;;;;;4950031;28;20097;-83
2022/07/27 05:26:15;;;;;;;3.03;1.60;;;;;;;;;;4943345;28;20423;-84
2022/07/27 05:28:40;;;;;;;2.25;1.30;;;;;;;;;;4950682;28;20054;-83
2022/07/27 05:31:06;;;;;;;3.22;1.38;;;;;;;;;;4949716;28;20027;-84
2022/07/27 05:33:31;;;;;;;6.60;1.65;;;;;;;;;;4946724;29;20049;-85
2022/07/27 05:35:57;;;;;;;3.60;1.60;;;;;;;;;;4961906;28;20123;-84
2022/07/27 05:38:23;;;;;;;3.75;1.48;;;;;;;;;;4950903;28;20118;-84
2022/07/27 05:40:49;;;;;;;2.65;1.42;;;;;;;;;;4950168;28;20266;-84
2022/07/27 05:43:14;;;;;;;5.57;1.35;;;;;;;;;;4949805;28;20146;-85
2022/07/27 05:45:39;;;;;;;3.08;1.42;;;;;;;;;;4950345;28;20110;-85
2022/07/27 05:48:05;;;;;;;2.10;1.30;;;;;;;;;;4952034;28;20042;-85
2022/07/27 05:50:30;;;;;;;2.97;1.30;;;;;;;;;;4949889;28;20117;-84
2022/07/27 05:52:57;;;;;;;6.18;1.50;;;;;;;;;;4945883;28;20043;-84
2022/07/27 05:55:23;;;;;;;2.10;1.27;;;;;;;;;;4950549;28;20031;-84
2022/07/27 05:57:49;;;;;;;3.65;1.67;;;;;;;;;;4950436;28;20525;-85
2022/07/27 06:00:15;;;;;;;4.90;1.50;;;;;;;;;;4949518;28;20035;-85
2022/07/27 06:02:40;;;;;;;2.05;1.50;;;;;;;;;;4950768;28;20047;-85
2022/07/27 06:05:06;;;;;;;3.97;1.42;;;;;;;;;;4950665;28;20035;-86
2022/07/27 06:10:16;;;;;;;3.97;1.45;;;;;;;;;;4949706;28;20556;-87
2022/07/27 06:12:43;;;;;;;3.83;1.58;;;;;;;;;;4952479;29;20114;-87
2022/07/27 06:15:09;;;;;;;4.22;1.65;;;;;;;;;;4951075;28;20028;-86
2022/07/27 06:17:38;;;;;;;2.13;1.30;;;;;;;;;;4950994;28;20507;-87
2022/07/27 06:20:05;;;;;;;2.28;1.25;;;;;;;;;;4951321;28;20047;-87
2022/07/27 06:22:30;;;;;;;3.35;1.50;;;;;;;;;;4951401;28;20035;-87
2022/07/27 06:24:56;;;;;;;2.85;1.27;;;;;;;;;;4951854;28;20019;-90
2022/07/27 06:27:21;;;;;;;2.33;1.38;;;;;;;;;;4952162;28;20057;-90
2022/07/27 06:29:47;;;;;;;5.25;1.20;;;;;;;;;;4960935;28;20036;-89
2022/07/27 06:32:12;;;;;;;3.67;1.20;;;;;;;;;;4951667;29;20027;-90
2022/07/27 06:34:37;;;;;;;3.88;1.58;;;;;;;;;;4966005;28;20039;-91
2022/07/27 06:37:03;;;;;;;8.27;1.52;;;;;;;;;;4951501;28;20388;-90
2022/07/27 06:39:29;;;;;;;2.65;1.50;;;;;;;;;;4954375;29;20019;-89
2022/07/27 06:41:55;;;;;;;1.42;1.02;;;;;;;;;;4954072;28;20032;-90
2022/07/27 06:44:20;;;;;;;4.05;1.70;;;;;;;;;;4953797;28;20062;-90
2022/07/27 06:46:46;;;;;;;5.55;1.27;;;;;;;;;;4952015;28;20465;-90
2022/07/27 06:49:12;;;;;;;3.53;1.10;;;;;;;;;;4951945;28;20069;-90
2022/07/27 06:51:37;;;;;;;5.00;1.08;;;;;;;;;;4952240;29;20155;-91
2022/07/27 06:54:03;;;;;;;3.83;1.05;;;;;;;;;;4970095;28;20043;-90
2022/07/27 06:56:29;;;;;;;3.92;0.90;;;;;;;;;;4952111;28;20041;-90
2022/07/27 06:58:55;;;;;;;2.47;0.98;;;;;;;;;;4951886;28;20043;-90
2022/07/27 07:01:21;;;;;;;7.43;1.27;;;;;;;;;;4952882;28;20047;-90
2022/07/27 07:03:46;;;;;;;3.15;1.30;;;;;;;;;;4953238;29;20486;-88
2022/07/27 07:06:11;;;;;;;4.63;1.30;;;;;;;;;;4963828;28;20046;-91
2022/07/27 07:08:37;;;;;;;8.32;1.38;;;;;;;;;;4954681;28;20034;-87
2022/07/27 07:11:02;;;;;;;1.17;0.93;;;;;;;;;;4977461;28;20078;-88
2022/07/27 07:13:28;;;;;;;1.55;0.93;;;;;;;;;;4975574;28;20047;-84
2022/07/27 07:15:53;;;;;;;2.45;1.60;;;;;;;;;;4965802;28;20024;-89
2022/07/27 07:18:18;;;;;;;6.45;1.10;;;;;;;;;;4959063;28;20066;-91
2022/07/27 07:20:44;;;;;;;2.00;1.10;;;;;;;;;;4976176;28;20039;-90
2022/07/27 07:23:10;;;;;;;3.35;1.08;;;;;;;;;;4957467;28;20705;-92
2022/07/27 07:25:37;;;;;;;2.88;0.93;;;;;;;;;;4953358;28;20178;-88
2022/07/27 07:28:04;;;;;;;2.58;1.05;;;;;;;;;;4949192;28;20087;-90
2022/07/27 07:30:31;;;;;;;2.55;1.10;;;;;;;;;;4951573;28;20023;-89
2022/07/27 07:32:56;;;;;;;2.78;0.80;;;;;;;;;;4954927;28;20046;-87
2022/07/27 07:35:22;;;;;;;4.43;1.15;;;;;;;;;;4948307;28;20039;-89
2022/07/27 07:37:48;;;;;;;2.22;1.20;;;;;;;;;;4950853;28;20518;-90
2022/07/27 07:40:13;;;;;;;2.60;1.02;;;;;;;;;;4968945;28;20153;-91
2022/07/27 07:42:53;;;;;;;2.47;0.95;;;;;;;;;;4949021;28;20186;-91
2022/07/27 07:45:21;;;;;;;3.53;0.85;;;;;;;;;;4959484;28;20055;-90
2022/07/27 07:47:47;;;;;;;2.20;1.20;;;;;;;;;;4964377;28;20040;-91
2022/07/27 07:50:13;;;;;;;1.25;0.90;;;;;;;;;;4948962;28;20583;-90
2022/07/27 07:52:38;;;;;;;2.25;1.02;;;;;;;;;;4957865;28;20120;-87
2022/07/27 07:55:04;;;;;;;2.03;1.02;;;;;;;;;;4935189;28;20634;-85
2022/07/27 07:57:29;;;;;;;2.33;0.90;;;;;;;;;;4948570;28;20122;-87
2022/07/27 07:59:55;;;;;;;1.75;0.95;;;;;;;;;;4948030;28;20031;-87
2022/07/27 08:02:20;;;;;;;1.50;0.90;;;;;;;;;;4942477;28;20067;-85
2022/07/27 08:04:46;;;;;;;2.20;0.80;;;;;;;;;;4945583;28;20043;-87
2022/07/27 08:07:11;;;;;;;1.88;1.10;;;;;;;;;;4945722;28;20027;-89
2022/07/27 08:09:37;;;;;;;4.18;1.30;;;;;;;;;;4961518;28;20023;-86
2022/07/27 08:12:02;;;;;;;1.45;1.00;;;;;;;;;;4946139;28;20605;-86
2022/07/27 08:14:28;;;;;;;5.40;1.30;;;;;;;;;;4946877;28;20059;-86
2022/07/27 08:16:53;;;;;;;2.30;1.08;;;;;;;;;;4947811;28;20466;-88
2022/07/27 08:19:18;;;;;;;5.97;1.75;;;;;;;;;;4947819;28;22522;-89
2022/07/27 08:21:44;;;;;;;3.38;1.45;;;;;;;;;;4950800;28;20065;-87
2022/07/27 08:24:10;;;;;;;1.55;1.08;;;;;;;;;;4950657;28;20051;-87
2022/07/27 08:26:35;;;;;;;3.63;1.48;;;;;;;;;;4947964;28;20055;-85
2022/07/27 08:29:01;;;;;;;2.35;1.52;;;;;;;;;;4946324;28;20063;-86
2022/07/27 08:31:26;;;;;;;4.65;1.60;;;;;;;;;;4963998;28;20039;-88
2022/07/27 08:33:51;;;;;;;3.45;1.30;;;;;;;;;;4949778;28;20027;-87
2022/07/27 08:36:17;;;;;;;8.18;1.40;;;;;;;;;;4945945;28;20043;-89
2022/07/27 08:38:43;;;;;;;3.30;1.10;;;;;;;;;;4949422;28;20062;-91
2022/07/27 08:41:10;;;;;;;2.20;1.20;;;;;;;;;;4951787;28;20043;-89
2022/07/27 08:43:36;;;;;;;1.40;1.10;;;;;;;;;;4955357;28;20410;-90
2022/07/27 08:46:01;;;;;;;1.73;1.05;;;;;;;;;;4955454;28;20105;-88
2022/07/27 08:48:31;;;;;;;4.00;1.42;;;;;;;;;;4954140;28;20494;-90
2022/07/27 08:50:57;;;;;;;1.65;1.10;;;;;;;;;;4953731;28;20122;-90
2022/07/27 08:53:23;;;;;;;2.33;1.50;;;;;;;;;;4952066;28;20123;-90
2022/07/27 08:55:48;;;;;;;2.97;1.20;;;;;;;;;;4951851;28;20039;-89
2022/07/27 08:58:14;;;;;;;1.95;1.23;;;;;;;;;;4973098;28;20051;-87
2022/07/27 09:00:43;;;;;;;1.77;1.17;;;;;;;;;;4959089;28;20023;-89
2022/07/27 09:03:13;;;;;;;4.63;1.38;;;;;;;;;;4953043;28;20039;-85
2022/07/27 09:05:43;;;;;;;2.33;1.60;;;;;;;;;;4948742;28;20461;-84
2022/07/27 09:08:17;;;;;;;3.75;1.73;;;;;;;;;;4953275;28;20034;-86
2022/07/27 09:10:43;;;;;;;4.85;1.90;;;;;;;;;;4949789;28;20047;-86
2022/07/27 09:13:22;;;;;;;5.90;2.20;;;;;;;;;;4948668;28;20027;-83
2022/07/27 09:15:50;;;;;;;1.77;1.38;;;;;;;;;;4941205;28;20055;-88
2022/07/27 09:18:21;;;;;;;2.40;1.23;;;;;;;;;;4949575;28;20047;-86
2022/07/27 09:21:06;;;;;;;1.77;1.25;;;;;;;;;;4946193;28;20381;-84
2022/07/27 09:23:31;;;;;;;1.77;1.50;;;;;;;;;;4963953;28;20097;-87
2022/07/27 09:26:09;;;;;;;2.95;1.20;;;;;;;;;;4948206;28;20086;-86
2022/07/27 09:28:35;;;;;;;3.17;1.20;;;;;;;;;;4949179;28;20051;-87
2022/07/27 09:31:11;;;;;;;2.72;0.80;;;;;;;;;;4946402;28;20023;-84
2022/07/27 09:33:44;;;;;;;2.97;1.10;;;;;;;;;;4947052;28;20023;-86
2022/07/27 09:36:10;;;;;;;1.80;0.80;;;;;;;;;;4947091;28;20119;-84
2022/07/27 09:38:36;;;;;;;1.95;1.00;;;;;;;;;;4945505;28;20049;-85
2022/07/27 09:41:03;;;;;;;1.63;1.00;;;;;;;;;;4951909;28;20051;-83
2022/07/27 09:43:30;;;;;;;3.42;1.00;;;;;;;;;;4950918;28;20055;-85
2022/07/27 09:45:55;;;;;;;1.27;1.17;;;;;;;;;;4945561;28;20075;-86
2022/07/27 09:48:22;;;;;;;1.85;1.00;;;;;;;;;;4945558;28;20110;-85
2022/07/27 09:50:57;;;;;;;2.00;1.02;;;;;;;;;;4950618;28;20063;-84
2022/07/27 09:53:25;;;;;;;1.13;0.90;;;;;;;;;;4954610;28;20079;-84
2022/07/27 09:56:08;;;;;;;2.05;1.00;;;;;;;;;;4950324;28;20404;-84
2022/07/27 09:58:43;;;;;;;2.13;1.08;;;;;;;;;;4961305;28;20035;-84
2022/07/27 10:01:16;;;;;;;3.97;1.10;;;;;;;;;;4948949;28;20098;-83
2022/07/27 10:03:43;;;;;;;1.23;1.13;;;;;;;;;;4947769;29;20042;-83
2022/07/27 10:06:10;;;;;;;3.22;1.40;;;;;;;;;;4949293;28;20043;-85
2022/07/27 10:08:41;;;;;;;3.35;1.25;;;;;;;;;;4961312;28;20043;-85
2022/07/27 10:11:06;;;;;;;1.30;1.02;;;;;;;;;;4938434;28;20071;-86
2022/07/27 10:13:33;;;;;;;2.83;1.10;;;;;;;;;;4933249;28;20140;-84
2022/07/27 10:16:00;;;;;;;1.30;1.17;;;;;;;;;;4943213;29;20041;-83
2022/07/27 10:18:44;;;;;;;1.50;1.20;;;;;;;;;;4945162;28;20046;-83
2022/07/27 10:21:10;;;;;;;2.22;1.10;;;;;;;;;;4938886;28;20541;-83
2022/07/27 10:23:37;;;;;;;3.28;1.33;;;;;;;;;;4945084;28;20078;-85
2022/07/27 10:26:23;;;;;;;5.63;1.45;;;;;;;;;;4959873;28;20654;-87
2022/07/27 10:28:58;;;;;;;4.18;1.35;;;;;;;;;;4943373;28;20065;-84
2022/07/27 10:31:36;;;;;;;2.22;1.23;;;;;;;;;;4946759;28;20093;-82
2022/07/27 10:34:06;;;;;;;1.92;1.00;;;;;;;;;;4943890;28;20514;-85
2022/07/27 10:36:32;;;;;;;2.92;1.00;;;;;;;;;;4944806;29;20115;-85
2022/07/27 10:38:59;;;;;;;1.63;1.23;;;;;;;;;;4941544;28;20062;-82
2022/07/27 10:41:33;;;;;;;2.33;1.20;;;;;;;;;;4945062;28;20522;-86
2022/07/27 10:44:26;;;;;;;5.75;1.13;;;;;;;;;;4969178;28;20058;-85
2022/07/27 10:46:55;;;;;;;3.28;1.05;;;;;;;;;;4948441;28;20039;-86
2022/07/27 10:49:26;;;;;;;2.30;1.00;;;;;;;;;;4946469;28;20043;-84
2022/07/27 10:51:53;;;;;;;2.08;1.17;;;;;;;;;;4950116;29;20023;-86
2022/07/27 10:54:34;;;;;;;2.05;1.10;;;;;;;;;;4958580;28;20039;-84
2022/07/27 10:57:02;;;;;;;5.35;1.55;;;;;;;;;;4942700;28;20043;-85
2022/07/27 10:59:41;;;;;;;3.10;1.30;;;;;;;;;;4943188;28;20046;-90
2022/07/27 11:02:08;;;;;;;2.78;1.20;;;;;;;;;;4943949;28;20126;-86
2022/07/27 11:04:43;;;;;;;1.42;1.00;;;;;;;;;;4942592;28;20603;-85
2022/07/27 11:07:08;;;;;;;2.17;1.40;;;;;;;;;;4945654;28;20031;-86
2022/07/27 11:09:36;;;;;;;1.73;1.30;;;;;;;;;;4937991;28;20097;-85
2022/07/27 11:12:03;;;;;;;3.03;1.60;;;;;;;;;;4944199;28;20112;-86
2022/07/27 11:14:29;;;;;;;2.13;1.38;;;;;;;;;;4943962;28;20130;-87
2022/07/27 11:16:56;;;;;;;2.90;1.50;;;;;;;;;;4947843;28;20150;-85
2022/07/27 11:19:22;;;;;;;2.35;1.48;;;;;;;;;;4945688;28;20560;-85
2022/07/27 11:21:48;;;;;;;3.28;1.50;;;;;;;;;;4941032;28;20030;-84
2022/07/27 11:24:17;;;;;;;1.73;1.40;;;;;;;;;;4944454;28;20039;-85
2022/07/27 11:26:45;;;;;;;1.85;1.50;;;;;;;;;;4944123;28;20066;-84
2022/07/27 11:29:12;;;;;;;3.15;1.58;;;;;;;;;;4940283;28;20129;-84
2022/07/27 11:31:39;;;;;;;2.08;1.52;;;;;;;;;;4940233;28;20047;-85
2022/07/27 11:34:06;;;;;;;2.10;1.60;;;;;;;;;;4961757;28;20146;-85
2022/07/27 11:36:39;;;;;;;2.25;1.40;;;;;;;;;;4971254;28;20071;-85
2022/07/27 11:39:06;;;;;;;1.88;1.50;;;;;;;;;;4988985;28;20031;-85
2022/07/27 11:41:34;;;;;;;1.15;1.05;;;;;;;;;;4951472;28;20066;-86
2022/07/27 11:44:11;;;;;;;2.78;1.30;;;;;;;;;;4949528;28;20047;-84
2022/07/27 11:46:43;;;;;;;2.50;1.30;;;;;;;;;;4949873;28;20042;-85
2022/07/27 11:49:14;;;;;;;3.15;1.48;;;;;;;;;;4947205;28;20038;-86
2022/07/27 11:51:45;;;;;;;4.60;1.70;;;;;;;;;;4946844;29;20023;-87
2022/07/27 11:54:24;;;;;;;4.32;1.50;;;;;;;;;;4945361;28;20038;-86
2022/07/27 11:56:54;;;;;;;4.40;1.45;;;;;;;;;;4943777;28;20051;-87
2022/07/27 11:59:28;;;;;;;2.22;1.90;;;;;;;;;;4938627;29;20122;-84
2022/07/27 12:01:57;;;;;;;2.05;1.35;;;;;;;;;;4943567;28;20039;-85
2022/07/27 12:04:29;;;;;;;1.65;1.40;;;;;;;;;;4953846;28;20043;-84
2022/07/27 12:06:58;;;;;;;2.13;1.63;;;;;;;;;;4946303;29;20023;-85
2022/07/27 12:09:24;;;;;;;4.00;2.20;;;;;;;;;;4943100;29;20097;-85
2022/07/27 12:11:59;;;;;;;3.88;1.73;;;;;;;;;;4946906;28;20047;-84
2022/07/27 12:14:39;;;;;;;2.20;1.60;;;;;;;;;;4943580;28;20044;-84
2022/07/27 12:17:17;;;;;;;6.25;2.03;;;;;;;;;;4948631;28;20073;-84
2022/07/27 12:19:49;;;;;;;2.80;1.95;;;;;;;;;;4954451;28;20051;-83
2022/07/27 12:22:22;;;;;;;3.80;1.80;;;;;;;;;;4946608;28;20185;-85
2022/07/27 12:24:47;;;;;;;2.33;1.80;;;;;;;;;;4940751;28;20695;-85
2022/07/27 12:27:14;;;;;;;3.13;1.80;;;;;;;;;;4949454;28;20519;-84
2022/07/27 12:29:55;;;;;;;3.05;1.58;;;;;;;;;;4951398;28;20039;-84
2022/07/27 12:32:21;;;;;;;3.15;1.80;;;;;;;;;;4947274;28;20047;-88
2022/07/27 12:34:46;;;;;;;3.83;1.90;;;;;;;;;;4950336;28;20063;-87
2022/07/27 12:37:12;;;;;;;3.63;2.03;;;;;;;;;;4950974;28;20522;-87
2022/07/27 12:39:41;;;;;;;2.58;1.92;;;;;;;;;;4954599;29;20027;-88
2022/07/27 12:42:08;;;;;;;2.67;2.10;;;;;;;;;;4963954;28;20560;-87
2022/07/27 12:44:35;;;;;;;2.53;1.80;;;;;;;;;;4966850;28;20040;-86
2022/07/27 12:47:39;;;;;;;4.20;2.10;;;;;;;;;;4950917;28;20139;-87
2022/07/27 12:50:06;;;;;;;2.22;1.98;;;;;;;;;;4951758;28;20039;-87
2022/07/27 12:52:34;;;;;;;3.83;2.00;;;;;;;;;;4951647;28;20126;-89
2022/07/27 12:54:59;;;;;;;2.85;1.75;;;;;;;;;;4950458;28;20027;-88
2022/07/27 12:57:25;;;;;;;2.08;1.88;;;;;;;;;;4952001;28;20098;-86
2022/07/27 12:59:51;;;;;;;2.08;1.60;;;;;;;;;;4952046;28;20031;-87
2022/07/27 13:02:17;;;;;;;2.03;1.80;;;;;;;;;;4963246;28;20035;-87
2022/07/27 13:04:43;;;;;;;2.08;1.80;;;;;;;;;;4949680;28;20115;-87
2022/07/27 13:07:08;;;;;;;4.65;2.10;;;;;;;;;;4951478;28;20106;-87
2022/07/27 13:09:37;;;;;;;2.58;1.80;;;;;;;;;;4967617;28;20561;-87
2022/07/27 13:12:03;;;;;;;3.20;1.70;;;;;;;;;;4945887;28;20036;-87
2022/07/27 13:14:28;;;;;;;2.28;1.75;;;;;;;;;;4950377;28;20041;-87
2022/07/27 13:16:54;;;;;;;2.30;1.92;;;;;;;;;;4965606;28;20044;-87
2022/07/27 13:19:19;;;;;;;1.98;1.70;;;;;;;;;;4949175;28;20415;-87
2022/07/27 13:21:44;;;;;;;2.17;1.60;;;;;;;;;;4962675;28;20734;-87
2022/07/27 13:24:10;;;;;;;3.20;1.77;;;;;;;;;;4949347;28;20039;-88
2022/07/27 13:26:36;;;;;;;4.55;1.60;;;;;;;;;;4952135;28;20082;-89
2022/07/27 13:29:02;;;;;;;2.92;2.05;;;;;;;;;;4941201;28;20065;-87
2022/07/27 13:31:28;;;;;;;3.28;1.73;;;;;;;;;;4952106;28;20509;-89
2022/07/27 13:33:53;;;;;;;7.03;2.25;;;;;;;;;;4963814;28;20111;-87
2022/07/27 13:36:18;;;;;;;1.85;1.52;;;;;;;;;;4947349;29;20027;-86
2022/07/27 13:38:44;;;;;;;2.83;1.92;;;;;;;;;;4950828;28;20044;-85
2022/07/27 13:41:09;;;;;;;3.10;1.77;;;;;;;;;;4950886;28;20499;-84
2022/07/27 13:43:35;;;;;;;1.90;1.70;;;;;;;;;;4949580;28;20040;-85
2022/07/27 13:46:02;;;;;;;2.10;1.80;;;;;;;;;;4949254;28;20094;-84
2022/07/27 13:48:27;;;;;;;4.78;2.03;;;;;;;;;;4951835;28;20025;-85
2022/07/27 13:50:52;;;;;;;3.47;1.88;;;;;;;;;;4950292;28;20459;-85
2022/07/27 13:53:18;;;;;;;3.83;2.05;;;;;;;;;;4950859;28;20069;-84
2022/07/27 13:55:43;;;;;;;2.10;1.80;;;;;;;;;;4949317;28;20122;-85
2022/07/27 13:58:10;;;;;;;2.45;1.83;;;;;;;;;;4949750;28;20045;-85
2022/07/27 14:00:37;;;;;;;3.08;1.73;;;;;;;;;;4945054;28;20047;-84
2022/07/27 14:03:03;;;;;;;4.20;1.52;;;;;;;;;;4950531;28;20486;-85
2022/07/27 14:05:28;;;;;;;2.97;1.90;;;;;;;;;;4949422;28;20577;-81
2022/07/27 14:07:54;;;;;;;3.83;1.75;;;;;;;;;;4965721;28;20131;-84
2022/07/27 14:10:38;;;;;;;2.28;1.70;;;;;;;;;;4949652;28;20172;-85
2022/07/27 14:13:05;;;;;;;2.30;1.55;;;;;;;;;;4959877;28;20491;-85
2022/07/27 14:15:30;;;;;;;6.72;2.10;;;;;;;;;;4959678;29;20015;-86
2022/07/27 14:17:56;;;;;;;3.97;1.38;;;;;;;;;;4957681;28;20106;-85
2022/07/27 14:20:22;;;;;;;2.92;1.40;;;;;;;;;;4950841;28;20067;-86
2022/07/27 14:22:47;;;;;;;1.55;1.33;;;;;;;;;;4949288;28;20035;-88
2022/07/27 14:25:13;;;;;;;7.93;1.52;;;;;;;;;;4953840;28;20059;-89
2022/07/27 14:27:39;;;;;;;6.38;2.00;;;;;;;;;;4947768;28;20016;-88
2022/07/27 14:30:06;;;;;;;1.75;1.50;;;;;;;;;;4948222;28;20042;-88
2022/07/27 14:32:31;;;;;;;2.08;1.55;;;;;;;;;;4947831;28;20113;-89
2022/07/27 14:34:57;;;;;;;6.38;1.92;;;;;;;;;;4945733;29;20388;-87
2022/07/27 14:37:23;;;;;;;4.97;1.52;;;;;;;;;;4945324;28;20475;-91
2022/07/27 14:39:48;;;;;;;2.50;1.30;;;;;;;;;;4949747;28;20082;-87
2022/07/27 14:42:14;;;;;;;1.50;1.30;;;;;;;;;;4949908;28;20632;-88
2022/07/27 14:44:39;;;;;;;2.75;1.73;;;;;;;;;;4960027;28;20118;-86
2022/07/27 14:47:04;;;;;;;6.03;1.88;;;;;;;;;;4947751;28;20039;-88